Time;durP1;ratioP1;P1;durP2;ratioP2;P2;SDS_P1;SDS_P2;PMS_P1;PMS_P2;Temp;Humidity;BMP_temperature;BMP_pressure;BME280_temperature;BME280_humidity;BME280_pressure;Samples;Min_cycle;Max_cycle;Signal;HPM_P1;HPM_P2
2022/10/03 00:00:13;;;;;;;0.50;0.50;;;;;;;;;;5031424;28;20226;-83
2022/10/03 00:03:00;;;;;;;0.50;0.50;;;;;;;;;;5069127;28;20276;-83
2022/10/03 00:05:35;;;;;;;1.50;1.47;;;;;;;;;;5046472;28;20261;-83
2022/10/03 00:08:08;;;;;;;0.70;0.70;;;;;;;;;;5048073;28;20280;-83
2022/10/03 00:10:42;;;;;;;0.50;0.50;;;;;;;;;;5048390;28;20213;-83
2022/10/03 00:13:14;;;;;;;10.93;1.40;;;;;;;;;;5046070;28;20227;-83
2022/10/03 00:15:45;;;;;;;4.17;3.83;;;;;;;;;;5050534;28;20199;-83
2022/10/03 00:18:22;;;;;;;0.50;0.50;;;;;;;;;;5053935;28;20223;-83
2022/10/03 00:21:03;;;;;;;1.00;1.00;;;;;;;;;;5049066;28;20221;-83
2022/10/03 00:23:37;;;;;;;0.50;0.50;;;;;;;;;;5051151;28;20207;-83
2022/10/03 00:28:57;;;;;;;0.50;0.50;;;;;;;;;;5050142;28;20298;-83
2022/10/03 00:31:27;;;;;;;0.53;0.53;;;;;;;;;;5070400;28;20239;-83
2022/10/03 00:34:01;;;;;;;0.50;0.50;;;;;;;;;;5047633;28;20206;-83
2022/10/03 00:36:38;;;;;;;0.50;0.50;;;;;;;;;;5034463;28;20292;-83
2022/10/03 00:39:19;;;;;;;0.60;0.60;;;;;;;;;;5055167;28;20215;-83
2022/10/03 00:41:56;;;;;;;0.70;0.70;;;;;;;;;;5024487;28;20262;-83
2022/10/03 00:44:54;;;;;;;1.10;1.10;;;;;;;;;;5034445;28;20210;-83
2022/10/03 00:47:31;;;;;;;3.80;1.80;;;;;;;;;;5015218;28;20287;-83
2022/10/03 00:50:20;;;;;;;0.50;0.50;;;;;;;;;;5036347;28;20220;-84
2022/10/03 00:52:59;;;;;;;1.33;1.13;;;;;;;;;;5070641;28;20300;-83
2022/10/03 00:55:37;;;;;;;1.37;1.37;;;;;;;;;;5053623;28;20229;-83
2022/10/03 00:58:18;;;;;;;0.50;0.50;;;;;;;;;;5070333;28;20236;-83
2022/10/03 01:00:50;;;;;;;0.50;0.50;;;;;;;;;;5039889;28;20239;-83
2022/10/03 01:03:24;;;;;;;0.73;0.73;;;;;;;;;;5040744;28;20265;-83
2022/10/03 01:06:07;;;;;;;4.17;0.93;;;;;;;;;;5053346;28;20213;-83
2022/10/03 01:08:48;;;;;;;0.50;0.50;;;;;;;;;;5053957;28;20287;-83
2022/10/03 01:11:22;;;;;;;0.50;0.50;;;;;;;;;;5042728;28;20216;-83
2022/10/03 01:13:56;;;;;;;0.50;0.50;;;;;;;;;;5044444;28;20266;-83
2022/10/03 01:16:30;;;;;;;0.50;0.50;;;;;;;;;;5054312;28;20277;-83
2022/10/03 01:19:02;;;;;;;0.50;0.50;;;;;;;;;;5040550;28;20213;-83
2022/10/03 01:21:35;;;;;;;0.50;0.50;;;;;;;;;;5059615;28;20204;-83
2022/10/03 01:24:27;;;;;;;0.50;0.50;;;;;;;;;;5037654;28;20209;-83
2022/10/03 01:26:57;;;;;;;0.50;0.50;;;;;;;;;;5053206;28;20210;-83
2022/10/03 01:32:21;;;;;;;0.70;0.70;;;;;;;;;;5052894;28;20278;-83
2022/10/03 01:35:01;;;;;;;0.40;0.40;;;;;;;;;;5056928;28;20227;-83
2022/10/03 01:37:32;;;;;;;0.50;0.50;;;;;;;;;;5022016;28;20297;-83
2022/10/03 01:40:03;;;;;;;0.50;0.50;;;;;;;;;;5047072;28;20301;-83
2022/10/03 01:42:36;;;;;;;1.33;1.33;;;;;;;;;;5044928;28;20206;-83
2022/10/03 01:45:16;;;;;;;0.50;0.50;;;;;;;;;;5045958;28;20231;-83
2022/10/03 01:47:50;;;;;;;0.50;0.50;;;;;;;;;;5033357;28;20214;-83
2022/10/03 01:50:22;;;;;;;0.50;0.50;;;;;;;;;;5020679;28;20238;-83
2022/10/03 01:52:54;;;;;;;0.50;0.50;;;;;;;;;;5045879;28;20234;-82
2022/10/03 01:55:26;;;;;;;0.50;0.50;;;;;;;;;;5042650;28;20222;-82
2022/10/03 01:57:59;;;;;;;0.50;0.50;;;;;;;;;;5050698;28;20213;-84
2022/10/03 02:00:32;;;;;;;1.37;1.37;;;;;;;;;;5043706;28;20206;-83
2022/10/03 02:03:03;;;;;;;0.50;0.50;;;;;;;;;;5048000;28;20203;-83
2022/10/03 02:05:37;;;;;;;0.50;0.50;;;;;;;;;;5032944;28;20253;-82
2022/10/03 02:08:06;;;;;;;0.50;0.50;;;;;;;;;;5032757;28;20204;-82
2022/10/03 02:10:39;;;;;;;0.50;0.50;;;;;;;;;;5032703;28;20238;-82
2022/10/03 02:13:12;;;;;;;0.50;0.50;;;;;;;;;;5044443;28;20277;-82
2022/10/03 02:15:48;;;;;;;0.50;0.50;;;;;;;;;;5049399;28;20206;-84
2022/10/03 02:18:21;;;;;;;0.50;0.50;;;;;;;;;;5034437;28;20217;-83
2022/10/03 02:20:52;;;;;;;0.50;0.50;;;;;;;;;;5037380;28;20226;-83
2022/10/03 02:23:26;;;;;;;0.50;0.50;;;;;;;;;;5029338;28;20210;-83
2022/10/03 02:26:01;;;;;;;0.50;0.50;;;;;;;;;;5061310;28;20206;-83
2022/10/03 02:28:44;;;;;;;0.50;0.50;;;;;;;;;;5033295;28;20218;-83
2022/10/03 02:31:31;;;;;;;0.50;0.50;;;;;;;;;;5041918;28;20234;-82
2022/10/03 02:34:07;;;;;;;0.50;0.50;;;;;;;;;;5049083;28;20222;-82
2022/10/03 02:36:53;;;;;;;0.50;0.50;;;;;;;;;;5046928;28;20198;-82
2022/10/03 02:39:46;;;;;;;0.50;0.50;;;;;;;;;;5042814;28;20201;-83
2022/10/03 02:42:24;;;;;;;0.50;0.50;;;;;;;;;;5015963;28;20249;-83
2022/10/03 02:45:02;;;;;;;0.50;0.50;;;;;;;;;;5049824;28;20223;-82
2022/10/03 02:47:43;;;;;;;0.50;0.50;;;;;;;;;;5032646;28;20299;-82
2022/10/03 02:50:34;;;;;;;0.50;0.50;;;;;;;;;;5051292;28;20198;-82
2022/10/03 02:53:21;;;;;;;0.50;0.50;;;;;;;;;;5054829;28;20313;-84
2022/10/03 02:56:11;;;;;;;0.50;0.50;;;;;;;;;;5048983;28;20228;-82
2022/10/03 02:58:53;;;;;;;0.50;0.50;;;;;;;;;;5040936;28;20262;-83
2022/10/03 03:01:32;;;;;;;0.50;0.50;;;;;;;;;;5057897;28;20227;-83
2022/10/03 03:04:21;;;;;;;0.50;0.50;;;;;;;;;;5035685;28;20390;-83
2022/10/03 03:06:56;;;;;;;0.50;0.50;;;;;;;;;;5035776;28;20298;-83
2022/10/03 03:09:42;;;;;;;0.50;0.50;;;;;;;;;;5035804;28;20229;-83
2022/10/03 03:12:26;;;;;;;0.50;0.50;;;;;;;;;;5035623;28;20207;-82
2022/10/03 03:15:15;;;;;;;0.50;0.50;;;;;;;;;;5047470;28;20227;-82
2022/10/03 03:17:48;;;;;;;0.50;0.50;;;;;;;;;;5054673;28;20206;-83
2022/10/03 03:20:37;;;;;;;0.50;0.50;;;;;;;;;;5071880;28;20199;-83
2022/10/03 03:23:24;;;;;;;0.50;0.50;;;;;;;;;;5024706;28;20279;-83
2022/10/03 03:26:03;;;;;;;0.50;0.50;;;;;;;;;;5041079;28;20224;-82
2022/10/03 03:28:37;;;;;;;0.50;0.50;;;;;;;;;;5055269;28;20225;-83
2022/10/03 03:31:10;;;;;;;0.50;0.50;;;;;;;;;;5048048;28;20309;-82
2022/10/03 03:33:45;;;;;;;0.50;0.50;;;;;;;;;;5050180;28;20301;-83
2022/10/03 03:36:16;;;;;;;0.50;0.50;;;;;;;;;;5056061;28;20290;-83
2022/10/03 03:38:50;;;;;;;0.50;0.50;;;;;;;;;;5054890;28;20230;-83
2022/10/03 03:41:30;;;;;;;0.50;0.50;;;;;;;;;;5042486;28;20287;-83
2022/10/03 03:44:11;;;;;;;0.50;0.50;;;;;;;;;;5055410;28;20210;-83
2022/10/03 03:46:48;;;;;;;0.50;0.50;;;;;;;;;;5056024;28;20202;-82
2022/10/03 03:49:23;;;;;;;0.50;0.50;;;;;;;;;;5051523;28;20230;-82
2022/10/03 03:51:57;;;;;;;0.50;0.50;;;;;;;;;;5046757;28;20198;-82
2022/10/03 03:54:31;;;;;;;0.50;0.50;;;;;;;;;;5064684;28;20269;-83
2022/10/03 03:57:07;;;;;;;0.50;0.50;;;;;;;;;;5034754;28;20210;-83
2022/10/03 03:59:43;;;;;;;0.50;0.50;;;;;;;;;;5043590;28;20202;-83
2022/10/03 04:02:18;;;;;;;0.50;0.50;;;;;;;;;;5042139;28;20227;-83
2022/10/03 04:04:52;;;;;;;0.50;0.50;;;;;;;;;;5035249;28;20291;-83
2022/10/03 04:07:30;;;;;;;0.50;0.50;;;;;;;;;;5035442;28;20284;-83
2022/10/03 04:10:07;;;;;;;0.60;0.60;;;;;;;;;;5048657;28;20197;-84
2022/10/03 04:12:44;;;;;;;0.50;0.50;;;;;;;;;;5055824;28;20270;-82
2022/10/03 04:15:25;;;;;;;0.50;0.50;;;;;;;;;;5041749;28;20218;-82
2022/10/03 04:21:13;;;;;;;0.50;0.50;;;;;;;;;;4988938;28;20270;-83
2022/10/03 04:23:57;;;;;;;0.40;0.40;;;;;;;;;;4981485;28;20197;-82
2022/10/03 04:26:31;;;;;;;0.50;0.50;;;;;;;;;;5030316;28;20207;-82
2022/10/03 04:29:28;;;;;;;0.57;0.57;;;;;;;;;;5054099;28;20200;-83
2022/10/03 04:32:06;;;;;;;0.50;0.50;;;;;;;;;;5030975;28;20222;-82
2022/10/03 04:34:41;;;;;;;0.50;0.50;;;;;;;;;;5041906;28;20221;-82
2022/10/03 04:37:16;;;;;;;0.50;0.50;;;;;;;;;;5044931;28;20202;-83
2022/10/03 04:39:48;;;;;;;0.50;0.50;;;;;;;;;;5069199;28;20209;-83
2022/10/03 04:42:23;;;;;;;0.60;0.60;;;;;;;;;;5042551;28;20219;-83
2022/10/03 04:45:02;;;;;;;0.50;0.50;;;;;;;;;;5042044;28;20236;-83
2022/10/03 04:47:34;;;;;;;0.50;0.50;;;;;;;;;;5040287;28;20206;-83
2022/10/03 04:50:09;;;;;;;0.50;0.50;;;;;;;;;;5043375;28;20200;-82
2022/10/03 04:52:39;;;;;;;0.93;0.93;;;;;;;;;;5048420;28;20202;-83
2022/10/03 04:55:16;;;;;;;0.50;0.50;;;;;;;;;;5052287;28;20294;-83
2022/10/03 04:57:48;;;;;;;0.50;0.50;;;;;;;;;;5046729;28;20223;-83
2022/10/03 05:00:23;;;;;;;0.50;0.50;;;;;;;;;;5035198;28;20210;-83
2022/10/03 05:02:55;;;;;;;0.50;0.50;;;;;;;;;;5044517;28;20245;-82
2022/10/03 05:05:42;;;;;;;0.50;0.50;;;;;;;;;;5049214;28;20195;-83
2022/10/03 05:08:16;;;;;;;0.50;0.50;;;;;;;;;;5051273;28;20209;-82
2022/10/03 05:10:55;;;;;;;0.50;0.50;;;;;;;;;;5027320;28;20226;-82
2022/10/03 05:13:32;;;;;;;0.50;0.50;;;;;;;;;;5059581;28;20289;-82
2022/10/03 05:16:06;;;;;;;0.50;0.50;;;;;;;;;;5053214;28;20225;-83
2022/10/03 05:18:40;;;;;;;0.50;0.50;;;;;;;;;;5040447;28;20205;-82
2022/10/03 05:21:14;;;;;;;0.93;0.93;;;;;;;;;;5069615;28;20266;-83
2022/10/03 05:23:47;;;;;;;0.50;0.50;;;;;;;;;;5034217;28;20200;-83
2022/10/03 05:26:19;;;;;;;0.50;0.50;;;;;;;;;;5034129;28;20253;-82
2022/10/03 05:29:15;;;;;;;0.50;0.50;;;;;;;;;;5052016;28;20202;-83
2022/10/03 05:31:49;;;;;;;0.50;0.50;;;;;;;;;;5039471;28;20227;-83
2022/10/03 05:34:24;;;;;;;0.50;0.50;;;;;;;;;;5032100;28;20220;-82
2022/10/03 05:37:01;;;;;;;0.50;0.50;;;;;;;;;;5040807;28;20198;-83
2022/10/03 05:39:35;;;;;;;0.50;0.50;;;;;;;;;;5035920;28;20232;-83
2022/10/03 05:42:14;;;;;;;0.50;0.50;;;;;;;;;;5044611;28;20226;-83
2022/10/03 05:44:52;;;;;;;0.50;0.50;;;;;;;;;;5021062;28;20212;-83
2022/10/03 05:47:48;;;;;;;0.50;0.50;;;;;;;;;;5044859;28;20289;-83
2022/10/03 05:50:35;;;;;;;0.70;0.70;;;;;;;;;;5027230;28;20207;-83
2022/10/03 05:53:14;;;;;;;0.50;0.50;;;;;;;;;;5022776;28;20215;-83
2022/10/03 05:55:50;;;;;;;1.47;1.47;;;;;;;;;;5033230;28;20240;-83
2022/10/03 05:58:44;;;;;;;0.50;0.50;;;;;;;;;;5045170;28;20369;-83
2022/10/03 06:01:17;;;;;;;0.50;0.50;;;;;;;;;;5022871;28;20224;-83
2022/10/03 06:03:59;;;;;;;1.93;1.83;;;;;;;;;;5037264;28;20278;-83
2022/10/03 06:06:40;;;;;;;0.60;0.60;;;;;;;;;;5040199;28;20227;-83
2022/10/03 06:09:23;;;;;;;0.50;0.50;;;;;;;;;;5048376;28;20213;-82
2022/10/03 06:12:05;;;;;;;4.00;1.87;;;;;;;;;;5043960;28;20234;-83
2022/10/03 06:14:37;;;;;;;0.80;0.80;;;;;;;;;;5043101;28;20215;-82
2022/10/03 06:17:25;;;;;;;0.53;0.53;;;;;;;;;;5050111;28;20295;-83
2022/10/03 06:19:59;;;;;;;0.50;0.50;;;;;;;;;;5032022;28;20233;-82
2022/10/03 06:22:51;;;;;;;0.50;0.50;;;;;;;;;;5039546;28;20315;-84
2022/10/03 06:25:34;;;;;;;0.50;0.50;;;;;;;;;;5054171;28;20225;-83
2022/10/03 06:28:22;;;;;;;0.97;0.97;;;;;;;;;;5055433;28;20211;-84
2022/10/03 06:30:58;;;;;;;0.50;0.50;;;;;;;;;;5045097;28;20236;-83
2022/10/03 06:33:52;;;;;;;0.50;0.50;;;;;;;;;;5049023;28;20239;-84
2022/10/03 06:36:38;;;;;;;0.77;0.77;;;;;;;;;;5036913;28;20216;-84
2022/10/03 06:39:31;;;;;;;0.50;0.50;;;;;;;;;;5048854;28;20210;-83
2022/10/03 06:42:11;;;;;;;0.60;0.60;;;;;;;;;;5055145;28;20282;-83
2022/10/03 06:44:55;;;;;;;0.60;0.60;;;;;;;;;;5050454;28;20216;-83
2022/10/03 06:47:28;;;;;;;0.80;0.80;;;;;;;;;;5053497;28;20204;-83
2022/10/03 06:50:15;;;;;;;0.60;0.60;;;;;;;;;;5056320;28;20226;-83
2022/10/03 06:52:52;;;;;;;0.40;0.40;;;;;;;;;;5062257;28;20240;-82
2022/10/03 06:55:33;;;;;;;0.50;0.50;;;;;;;;;;5045028;28;20302;-84
2022/10/03 06:58:40;;;;;;;0.50;0.50;;;;;;;;;;5026184;28;20210;-83
2022/10/03 07:01:25;;;;;;;0.40;0.40;;;;;;;;;;5036526;28;20288;-84
2022/10/03 07:04:22;;;;;;;0.50;0.50;;;;;;;;;;5068606;28;20396;-83
2022/10/03 07:07:02;;;;;;;0.50;0.50;;;;;;;;;;5070321;28;20217;-83
2022/10/03 07:09:45;;;;;;;0.50;0.50;;;;;;;;;;5043066;28;20203;-83
2022/10/03 07:12:32;;;;;;;0.40;0.40;;;;;;;;;;5033254;28;20277;-83
2022/10/03 07:15:31;;;;;;;0.40;0.40;;;;;;;;;;5037503;28;20218;-83
2022/10/03 07:18:47;;;;;;;0.50;0.50;;;;;;;;;;5014374;28;20206;-83
2022/10/03 07:21:34;;;;;;;0.70;0.70;;;;;;;;;;5035532;28;20208;-83
2022/10/03 07:24:30;;;;;;;1.70;0.70;;;;;;;;;;5033503;28;20205;-83
2022/10/03 07:27:22;;;;;;;0.40;0.40;;;;;;;;;;4998503;28;20207;-83
2022/10/03 07:30:05;;;;;;;0.73;0.73;;;;;;;;;;5021926;28;20252;-84
2022/10/03 07:32:52;;;;;;;0.40;0.40;;;;;;;;;;5022854;28;20272;-84
2022/10/03 07:39:00;;;;;;;0.50;0.50;;;;;;;;;;5019017;28;20206;-84
2022/10/03 07:41:46;;;;;;;2.03;1.40;;;;;;;;;;5038603;28;20214;-86
2022/10/03 07:44:23;;;;;;;1.40;0.90;;;;;;;;;;5019624;28;20219;-85
2022/10/03 07:47:03;;;;;;;3.10;3.00;;;;;;;;;;5034431;28;20195;-85
2022/10/03 07:49:46;;;;;;;1.23;1.23;;;;;;;;;;5027952;28;20193;-85
2022/10/03 07:52:33;;;;;;;0.90;0.90;;;;;;;;;;5046221;28;20202;-85
2022/10/03 07:55:20;;;;;;;0.60;0.60;;;;;;;;;;5023755;28;20206;-86
2022/10/03 07:58:02;;;;;;;3.10;1.57;;;;;;;;;;5040030;28;20301;-85
2022/10/03 08:00:38;;;;;;;1.23;1.00;;;;;;;;;;5052125;28;20245;-85
2022/10/03 08:03:26;;;;;;;1.07;1.07;;;;;;;;;;5025619;28;20211;-84
2022/10/03 08:06:08;;;;;;;2.83;1.10;;;;;;;;;;5026796;28;20201;-85
2022/10/03 08:08:56;;;;;;;1.03;1.03;;;;;;;;;;5023471;28;20225;-85
2022/10/03 08:11:33;;;;;;;2.30;1.57;;;;;;;;;;5025189;28;20212;-86
2022/10/03 08:14:13;;;;;;;0.40;0.40;;;;;;;;;;5031652;28;20215;-84
2022/10/03 08:16:51;;;;;;;3.00;1.43;;;;;;;;;;5028712;28;20214;-85
2022/10/03 08:19:27;;;;;;;3.60;1.10;;;;;;;;;;5016853;28;20242;-85
2022/10/03 08:22:06;;;;;;;1.37;1.20;;;;;;;;;;5020253;28;20204;-86
2022/10/03 08:24:41;;;;;;;0.40;0.40;;;;;;;;;;5037799;28;20210;-84
2022/10/03 08:27:18;;;;;;;7.23;0.80;;;;;;;;;;5032379;28;20218;-84
2022/10/03 08:30:03;;;;;;;0.40;0.40;;;;;;;;;;5019460;28;20214;-84
2022/10/03 08:32:50;;;;;;;0.40;0.40;;;;;;;;;;5023921;28;20213;-84
2022/10/03 08:35:25;;;;;;;0.30;0.30;;;;;;;;;;5024068;28;20198;-84
2022/10/03 08:38:07;;;;;;;0.40;0.40;;;;;;;;;;5041513;28;20206;-83
2022/10/03 08:40:55;;;;;;;0.40;0.40;;;;;;;;;;5023835;28;20201;-83
2022/10/03 08:43:39;;;;;;;0.60;0.60;;;;;;;;;;5020673;28;20302;-83
2022/10/03 08:46:36;;;;;;;0.53;0.53;;;;;;;;;;5036294;28;20199;-83
2022/10/03 08:49:14;;;;;;;0.50;0.50;;;;;;;;;;5018555;28;20199;-82
2022/10/03 08:52:02;;;;;;;0.37;0.37;;;;;;;;;;5032695;28;20213;-82
2022/10/03 08:54:45;;;;;;;0.40;0.40;;;;;;;;;;5040358;28;20249;-83
2022/10/03 08:57:20;;;;;;;0.30;0.30;;;;;;;;;;5037296;28;20211;-83
2022/10/03 09:00:03;;;;;;;0.30;0.30;;;;;;;;;;5023794;28;20211;-83
2022/10/03 09:02:47;;;;;;;0.30;0.30;;;;;;;;;;5038278;28;20223;-83
2022/10/03 09:05:47;;;;;;;0.30;0.30;;;;;;;;;;5018224;28;20195;-83
2022/10/03 09:08:33;;;;;;;0.30;0.30;;;;;;;;;;5031824;28;20195;-84
2022/10/03 09:11:29;;;;;;;0.30;0.30;;;;;;;;;;5018455;28;20278;-83
2022/10/03 09:14:14;;;;;;;0.30;0.30;;;;;;;;;;4982282;28;20203;-83
2022/10/03 09:16:50;;;;;;;0.30;0.30;;;;;;;;;;5020024;28;20222;-83
2022/10/03 09:19:31;;;;;;;0.30;0.30;;;;;;;;;;5022987;28;20206;-83
2022/10/03 09:22:11;;;;;;;0.40;0.40;;;;;;;;;;5022423;28;20214;-83
2022/10/03 09:24:57;;;;;;;0.30;0.30;;;;;;;;;;5018590;28;20215;-83
2022/10/03 09:27:34;;;;;;;1.67;0.73;;;;;;;;;;5022156;28;20195;-84
2022/10/03 09:30:21;;;;;;;0.63;0.63;;;;;;;;;;5020333;28;20267;-83
2022/10/03 09:33:05;;;;;;;0.30;0.30;;;;;;;;;;5024140;28;20204;-83
2022/10/03 09:35:53;;;;;;;3.60;1.13;;;;;;;;;;5035034;28;20199;-84
2022/10/03 09:38:40;;;;;;;0.30;0.30;;;;;;;;;;5026145;28;20214;-83
2022/10/03 09:41:29;;;;;;;0.30;0.30;;;;;;;;;;5021721;28;21480;-84
2022/10/03 09:44:31;;;;;;;0.30;0.30;;;;;;;;;;5025386;28;20306;-82
2022/10/03 09:47:26;;;;;;;0.33;0.33;;;;;;;;;;5028296;28;20196;-83
2022/10/03 09:50:18;;;;;;;0.50;0.50;;;;;;;;;;5035857;28;20213;-84
2022/10/03 09:53:01;;;;;;;1.80;1.17;;;;;;;;;;5027319;28;20203;-84
2022/10/03 09:55:35;;;;;;;1.40;0.80;;;;;;;;;;5034710;28;20203;-84
2022/10/03 09:58:22;;;;;;;2.00;1.77;;;;;;;;;;5049436;28;20311;-84
2022/10/03 10:01:08;;;;;;;0.63;0.50;;;;;;;;;;5038332;28;20283;-84
2022/10/03 10:03:59;;;;;;;3.93;0.70;;;;;;;;;;5037971;28;20205;-84
2022/10/03 10:06:34;;;;;;;2.20;0.73;;;;;;;;;;5064211;28;20206;-83
2022/10/03 10:09:21;;;;;;;1.07;0.97;;;;;;;;;;5038237;28;20208;-84
2022/10/03 10:12:11;;;;;;;5.10;0.90;;;;;;;;;;5037525;28;20295;-84
2022/10/03 10:14:49;;;;;;;0.60;0.60;;;;;;;;;;4989000;28;20225;-85
2022/10/03 10:17:45;;;;;;;0.83;0.83;;;;;;;;;;5041314;28;20223;-84
2022/10/03 10:20:38;;;;;;;1.33;0.93;;;;;;;;;;5024664;28;20218;-83
2022/10/03 10:23:16;;;;;;;1.00;1.00;;;;;;;;;;5020061;28;20200;-84
2022/10/03 10:26:15;;;;;;;0.30;0.30;;;;;;;;;;5020556;28;20213;-84
2022/10/03 10:29:18;;;;;;;0.30;0.30;;;;;;;;;;5021971;28;20257;-85
2022/10/03 10:32:13;;;;;;;0.33;0.33;;;;;;;;;;5024866;28;20258;-84
2022/10/03 10:35:14;;;;;;;0.50;0.50;;;;;;;;;;5018486;28;20221;-83
2022/10/03 10:38:02;;;;;;;0.30;0.30;;;;;;;;;;5020786;28;20229;-84
2022/10/03 10:40:49;;;;;;;0.70;0.70;;;;;;;;;;5029174;28;20203;-83
2022/10/03 10:43:36;;;;;;;5.93;0.90;;;;;;;;;;5022027;28;20199;-87
2022/10/03 10:46:23;;;;;;;1.37;1.00;;;;;;;;;;5022451;28;20225;-89
2022/10/03 10:49:30;;;;;;;4.87;2.20;;;;;;;;;;5028122;28;20336;-87
2022/10/03 10:52:17;;;;;;;0.60;0.60;;;;;;;;;;5023102;28;20234;-86
2022/10/03 10:55:03;;;;;;;1.30;1.13;;;;;;;;;;5021544;28;20291;-86
2022/10/03 10:58:01;;;;;;;4.60;1.17;;;;;;;;;;5022678;28;20302;-91
2022/10/03 11:00:41;;;;;;;9.37;2.97;;;;;;;;;;5022280;28;20223;-82
2022/10/03 11:03:25;;;;;;;0.30;0.30;;;;;;;;;;5019687;28;20304;-83
2022/10/03 11:06:16;;;;;;;0.90;0.90;;;;;;;;;;5031182;28;20196;-83
2022/10/03 11:09:03;;;;;;;0.30;0.30;;;;;;;;;;5021689;28;20202;-84
2022/10/03 11:11:51;;;;;;;0.70;0.70;;;;;;;;;;5016551;28;20210;-83
2022/10/03 11:14:40;;;;;;;5.50;3.70;;;;;;;;;;5022934;28;20203;-83
2022/10/03 11:17:32;;;;;;;3.03;0.77;;;;;;;;;;5032411;28;20222;-83
2022/10/03 11:20:22;;;;;;;0.83;0.83;;;;;;;;;;5034798;28;20297;-82
2022/10/03 11:23:23;;;;;;;0.47;0.47;;;;;;;;;;5017473;28;20250;-83
2022/10/03 11:26:17;;;;;;;1.90;1.30;;;;;;;;;;5034621;28;20266;-83
2022/10/03 11:29:02;;;;;;;0.57;0.53;;;;;;;;;;5010583;28;20217;-83
2022/10/03 11:32:07;;;;;;;0.30;0.30;;;;;;;;;;5028029;28;20261;-84
2022/10/03 11:34:56;;;;;;;0.30;0.30;;;;;;;;;;5019753;28;20236;-85
2022/10/03 11:37:38;;;;;;;0.60;0.60;;;;;;;;;;5036110;28;20308;-84
2022/10/03 11:40:30;;;;;;;2.33;1.23;;;;;;;;;;5023800;28;20203;-85
2022/10/03 11:43:13;;;;;;;0.40;0.40;;;;;;;;;;5026566;28;20213;-84
2022/10/03 11:45:46;;;;;;;2.23;1.03;;;;;;;;;;5021347;28;20213;-84
2022/10/03 11:48:28;;;;;;;1.17;0.73;;;;;;;;;;5025511;28;20223;-85
2022/10/03 11:50:59;;;;;;;1.33;1.27;;;;;;;;;;5023992;28;20297;-84
2022/10/03 11:53:38;;;;;;;0.50;0.50;;;;;;;;;;5034460;28;20277;-84
2022/10/03 11:56:13;;;;;;;2.57;1.60;;;;;;;;;;5023492;28;20207;-84
2022/10/03 11:58:56;;;;;;;0.60;0.60;;;;;;;;;;5042970;28;20216;-82
2022/10/03 12:01:35;;;;;;;1.70;0.83;;;;;;;;;;5010431;28;20229;-82
2022/10/03 12:04:11;;;;;;;0.40;0.40;;;;;;;;;;5022125;28;20209;-84
2022/10/03 12:09:42;;;;;;;0.83;0.83;;;;;;;;;;5017590;28;20233;-84
2022/10/03 12:12:14;;;;;;;1.50;1.30;;;;;;;;;;5020862;28;20208;-84
2022/10/03 12:14:47;;;;;;;0.70;0.70;;;;;;;;;;5029414;28;20203;-84
2022/10/03 12:17:16;;;;;;;1.43;1.07;;;;;;;;;;5026726;28;20207;-85
2022/10/03 12:19:49;;;;;;;0.53;0.53;;;;;;;;;;5029115;28;20210;-85
2022/10/03 12:22:29;;;;;;;5.10;1.40;;;;;;;;;;5023965;28;20205;-85
2022/10/03 12:25:14;;;;;;;1.23;1.23;;;;;;;;;;5024118;28;20219;-86
2022/10/03 12:27:51;;;;;;;1.90;1.23;;;;;;;;;;5021357;28;20202;-85
2022/10/03 12:30:23;;;;;;;1.23;0.80;;;;;;;;;;5018280;28;20262;-85
2022/10/03 12:33:05;;;;;;;2.37;1.27;;;;;;;;;;5023727;28;20205;-83
2022/10/03 12:35:40;;;;;;;1.77;0.70;;;;;;;;;;5041226;28;20207;-84
2022/10/03 12:38:22;;;;;;;1.10;0.63;;;;;;;;;;5024854;28;20226;-84
2022/10/03 12:41:04;;;;;;;1.53;1.10;;;;;;;;;;5023843;28;20470;-85
2022/10/03 12:46:46;;;;;;;0.30;0.30;;;;;;;;;;5035843;28;20200;-86
2022/10/03 12:49:20;;;;;;;1.37;1.27;;;;;;;;;;5021480;28;20252;-85
2022/10/03 12:52:16;;;;;;;2.43;1.53;;;;;;;;;;5017242;28;20201;-84
2022/10/03 12:55:10;;;;;;;1.27;1.27;;;;;;;;;;5023097;28;20208;-83
2022/10/03 12:58:03;;;;;;;0.30;0.30;;;;;;;;;;5022390;28;20239;-85
2022/10/03 13:00:39;;;;;;;0.93;0.93;;;;;;;;;;5017617;28;20215;-86
2022/10/03 13:03:31;;;;;;;2.03;0.70;;;;;;;;;;5021240;28;20218;-85
2022/10/03 13:06:20;;;;;;;4.10;1.40;;;;;;;;;;5039972;28;20199;-85
2022/10/03 13:09:15;;;;;;;5.33;1.70;;;;;;;;;;5022736;28;20341;-85
2022/10/03 13:11:52;;;;;;;2.20;1.00;;;;;;;;;;5018433;28;20210;-85
2022/10/03 13:14:31;;;;;;;2.17;1.40;;;;;;;;;;5020412;28;20208;-84
2022/10/03 13:17:05;;;;;;;5.13;0.67;;;;;;;;;;5035272;28;20304;-84
2022/10/03 13:19:39;;;;;;;0.53;0.50;;;;;;;;;;5020461;28;20236;-84
2022/10/03 13:22:19;;;;;;;1.77;1.67;;;;;;;;;;5019912;28;20213;-84
2022/10/03 13:24:52;;;;;;;6.97;2.30;;;;;;;;;;5021190;28;20248;-85
2022/10/03 13:27:35;;;;;;;1.37;1.10;;;;;;;;;;5019692;28;20222;-85
2022/10/03 13:30:16;;;;;;;1.77;1.13;;;;;;;;;;5022087;28;20220;-85
2022/10/03 13:32:46;;;;;;;2.23;0.60;;;;;;;;;;5021386;28;20295;-85
2022/10/03 13:38:22;;;;;;;0.90;0.90;;;;;;;;;;5028772;28;20230;-84
2022/10/03 13:40:57;;;;;;;1.20;1.17;;;;;;;;;;4993322;28;20257;-83
2022/10/03 13:43:33;;;;;;;5.00;1.23;;;;;;;;;;5018532;28;20195;-84
2022/10/03 13:46:06;;;;;;;7.63;2.10;;;;;;;;;;5020630;28;20262;-85
2022/10/03 13:48:36;;;;;;;2.63;1.00;;;;;;;;;;5039306;28;20195;-84
2022/10/03 13:51:07;;;;;;;2.27;2.07;;;;;;;;;;5021457;28;20215;-85
2022/10/03 13:53:45;;;;;;;17.63;1.80;;;;;;;;;;5016155;28;20205;-84
2022/10/03 13:56:20;;;;;;;5.10;2.43;;;;;;;;;;5021394;28;20906;-84
2022/10/03 13:58:51;;;;;;;1.70;1.03;;;;;;;;;;5019411;28;20238;-84
2022/10/03 14:01:32;;;;;;;0.83;0.80;;;;;;;;;;5038351;28;20226;-84
2022/10/03 14:04:20;;;;;;;0.30;0.30;;;;;;;;;;5025975;28;20210;-84
2022/10/03 14:06:54;;;;;;;4.07;2.27;;;;;;;;;;5021312;28;20298;-84
2022/10/03 14:09:31;;;;;;;9.07;1.80;;;;;;;;;;5020345;28;20198;-85
2022/10/03 14:12:06;;;;;;;0.60;0.60;;;;;;;;;;5021259;28;20214;-86
2022/10/03 14:14:50;;;;;;;0.80;0.80;;;;;;;;;;5021988;28;20211;-85
2022/10/03 14:17:25;;;;;;;2.13;1.00;;;;;;;;;;5024629;28;20208;-85
2022/10/03 14:20:05;;;;;;;0.67;0.67;;;;;;;;;;5014360;28;20215;-85
2022/10/03 14:22:38;;;;;;;3.63;1.70;;;;;;;;;;5034874;28;20204;-84
2022/10/03 14:25:18;;;;;;;6.27;1.40;;;;;;;;;;5034018;28;20210;-85
2022/10/03 14:27:51;;;;;;;0.60;0.60;;;;;;;;;;5023996;28;20221;-85
2022/10/03 14:30:21;;;;;;;1.07;1.07;;;;;;;;;;5027554;28;20221;-85
2022/10/03 14:33:11;;;;;;;1.60;0.97;;;;;;;;;;5026526;28;20207;-84
2022/10/03 14:35:43;;;;;;;0.67;0.67;;;;;;;;;;5017047;28;20206;-85
2022/10/03 14:38:21;;;;;;;0.53;0.53;;;;;;;;;;5024737;28;20225;-84
2022/10/03 14:41:00;;;;;;;1.80;1.47;;;;;;;;;;5018799;28;20209;-85
2022/10/03 14:43:37;;;;;;;0.57;0.57;;;;;;;;;;5022465;28;20213;-85
2022/10/03 14:46:10;;;;;;;4.90;1.27;;;;;;;;;;5022144;28;20214;-85
2022/10/03 14:48:54;;;;;;;0.30;0.30;;;;;;;;;;5027422;28;20254;-86
2022/10/03 14:51:26;;;;;;;2.27;1.27;;;;;;;;;;5023997;28;20293;-86
2022/10/03 14:54:01;;;;;;;3.17;1.40;;;;;;;;;;5022599;28;20231;-86
2022/10/03 14:56:33;;;;;;;2.67;1.27;;;;;;;;;;5020935;28;20215;-85
2022/10/03 14:59:05;;;;;;;2.87;2.67;;;;;;;;;;5022281;28;20286;-85
2022/10/03 15:01:35;;;;;;;1.13;1.13;;;;;;;;;;5023943;28;20304;-85
2022/10/03 15:04:08;;;;;;;0.40;0.40;;;;;;;;;;5038596;28;20211;-85
2022/10/03 15:06:53;;;;;;;3.00;1.67;;;;;;;;;;5023713;28;20212;-85
2022/10/03 15:09:24;;;;;;;2.50;2.03;;;;;;;;;;5024578;28;20213;-85
2022/10/03 15:11:58;;;;;;;1.40;0.63;;;;;;;;;;5021593;28;20208;-86
2022/10/03 15:14:30;;;;;;;0.87;0.53;;;;;;;;;;5022559;28;20203;-86
2022/10/03 15:17:00;;;;;;;0.87;0.33;;;;;;;;;;5021394;28;20293;-85
2022/10/03 15:19:43;;;;;;;2.90;1.30;;;;;;;;;;5024667;28;20224;-85
2022/10/03 15:22:22;;;;;;;4.30;2.20;;;;;;;;;;5032851;28;20216;-85
2022/10/03 15:25:00;;;;;;;3.13;1.43;;;;;;;;;;5023036;28;20203;-85
2022/10/03 15:27:33;;;;;;;2.03;1.13;;;;;;;;;;5034880;28;20220;-84
2022/10/03 15:30:05;;;;;;;1.33;1.23;;;;;;;;;;5025598;28;20211;-83
2022/10/03 15:32:37;;;;;;;0.50;0.50;;;;;;;;;;5020418;28;20240;-84
2022/10/03 15:35:08;;;;;;;2.30;1.50;;;;;;;;;;5015852;28;20211;-83
2022/10/03 15:37:40;;;;;;;0.43;0.43;;;;;;;;;;5025455;28;20247;-83
2022/10/03 15:40:21;;;;;;;1.63;0.83;;;;;;;;;;5027030;28;20306;-83
2022/10/03 15:42:52;;;;;;;1.23;0.83;;;;;;;;;;5027524;28;20287;-84
2022/10/03 15:45:28;;;;;;;0.60;0.60;;;;;;;;;;5027093;28;20289;-83
2022/10/03 15:47:57;;;;;;;0.40;0.40;;;;;;;;;;5029544;28;20226;-83
2022/10/03 15:50:28;;;;;;;1.17;0.90;;;;;;;;;;5028681;28;20289;-83
2022/10/03 15:52:58;;;;;;;0.40;0.40;;;;;;;;;;5028796;28;20206;-84
2022/10/03 15:55:49;;;;;;;0.50;0.50;;;;;;;;;;5025639;28;20262;-83
2022/10/03 15:58:20;;;;;;;0.40;0.40;;;;;;;;;;5023956;28;20214;-83
2022/10/03 16:00:53;;;;;;;2.00;0.80;;;;;;;;;;5046059;28;20286;-84
2022/10/03 16:03:24;;;;;;;2.60;1.00;;;;;;;;;;5027202;28;20203;-83
2022/10/03 16:06:00;;;;;;;0.80;0.80;;;;;;;;;;5024853;28;20211;-83
2022/10/03 16:08:30;;;;;;;2.10;0.87;;;;;;;;;;5031206;28;20258;-83
2022/10/03 16:11:03;;;;;;;0.97;0.90;;;;;;;;;;5028236;28;20227;-83
2022/10/03 16:13:35;;;;;;;4.10;1.47;;;;;;;;;;5027176;28;20211;-83
2022/10/03 16:16:08;;;;;;;3.93;1.90;;;;;;;;;;5023659;28;20219;-84
2022/10/03 16:18:55;;;;;;;3.70;2.00;;;;;;;;;;5030383;28;20209;-84
2022/10/03 16:21:40;;;;;;;0.83;0.83;;;;;;;;;;5026215;28;20239;-83